Winona

*Note: All times are displayed in the local standard time of the station location.
**Rain - Equipment is designed to accurately record liquid precipitation; under conditions when precipitation is not in liquid form, the data displayed may not properly reflect rainfall values.

Date Max Temp
(°C)
Min Temp
(°C)
Avg Temp
(°C)
Rain (mm) Avg RH (%) Solar Rad (kJ/m2)
Sun, May 19, 2019 22.2 6.5 12.4 0.4 77.3 16591.4
Sat, May 18, 2019 11.8 4.8 8.6 0.0 81.8 10874.5
Fri, May 17, 2019 19.7 8.4 14.8 0.0 71.9 16992.3
Thu, May 16, 2019 17.7 6.2 12.1 0.0 76.7 13492.9
Wed, May 15, 2019 21.3 8.4 14.0 1.0 65.6 12144.7
Tue, May 14, 2019 14.4 5.3 9.2 5.8 85.8 9902.4
Mon, May 13, 2019 6.8 4.9 5.7 6.6 99.1 4662.7
DateTime Avg Temp (°C) Rain (mm) RH (%) Solar Rad (kJ/m2)
Mon, May 20, 2019 12:00 17.9 0.0 64.8 1248.4
Mon, May 20, 2019 11:00 18.4 0.0 68.0 1119.7
Mon, May 20, 2019 10:00 18.0 0.0 71.9 962.2
Mon, May 20, 2019 09:00 17.2 0.0 80.8 392.3
Mon, May 20, 2019 08:00 16.1 0.0 89.6 277.7
Mon, May 20, 2019 07:00 15.4 0.0 91.9 106.1
Mon, May 20, 2019 06:00 16.2 0.0 90.9 2.8
Mon, May 20, 2019 05:00 16.4 0.0 90.2 0.0
Mon, May 20, 2019 04:00 16.7 0.0 88.2 0.0
Mon, May 20, 2019 03:00 16.4 0.0 87.2 0.0
Mon, May 20, 2019 02:00 16.0 0.0 86.4 0.0
Mon, May 20, 2019 01:00 14.7 0.0 90.4 0.0
Mon, May 20, 2019 00:00 15.7 0.0 88.4 0.0
Sun, May 19, 2019 23:00 16.9 0.0 88.0 0.0
Sun, May 19, 2019 22:00 17.3 0.0 85.8 0.0
Sun, May 19, 2019 21:00 18.4 0.2 84.5 4.3
Sun, May 19, 2019 20:00 21.2 0.2 77.4 42.6
Sun, May 19, 2019 19:00 15.1 0.0 78.0 183.6
Sun, May 19, 2019 18:00 12.9 0.0 79.4 460.9
Sun, May 19, 2019 17:00 14.1 0.0 75.2 1153.4
Sun, May 19, 2019 16:00 14.6 0.0 69.7 1738.6
Sun, May 19, 2019 15:00 14.4 0.0 69.7 2167.8
Sun, May 19, 2019 14:00 14.0 0.0 68.6 2105.5
Sun, May 19, 2019 13:00 13.4 0.0 68.4 1966.5
Sun, May 19, 2019 12:00 13.3 0.0 67.4 2170.2
Sun, May 19, 2019 11:00 12.9 0.0 68.1 1693.9
Sun, May 19, 2019 10:00 13.4 0.0 64.5 1478.1
Sun, May 19, 2019 09:00 11.5 0.0 70.2 973.4
Sun, May 19, 2019 08:00 8.9 0.0 76.3 346.2
Sun, May 19, 2019 07:00 7.4 0.0 83.1 104.9
Sun, May 19, 2019 06:00 7.2 0.0 81.5 1.5
Sun, May 19, 2019 05:00 7.2 0.0 80.8 0.0
Sun, May 19, 2019 04:00 6.7 0.0 83.8 0.0
Sun, May 19, 2019 03:00 6.8 0.0 81.9 0.0
Sun, May 19, 2019 02:00 7.0 0.0 81.6 0.0
Sun, May 19, 2019 01:00 7.0 0.0 83.1 0.0
Sun, May 19, 2019 00:00 7.4 0.0 81.8 0.0
Sat, May 18, 2019 23:00 7.5 0.0 84.3 0.0
Sat, May 18, 2019 22:00 8.0 0.0 82.3 0.0
Sat, May 18, 2019 21:00 9.1 0.0 74.1 7.4
Sat, May 18, 2019 20:00 9.5 0.0 74.1 59.8
Sat, May 18, 2019 19:00 10.3 0.0 70.9 176.3
Sat, May 18, 2019 18:00 10.2 0.0 73.1 471.9
Sat, May 18, 2019 17:00 11.3 0.0 69.6 929.9
Sat, May 18, 2019 16:00 11.3 0.0 69.7 1358.7
Sat, May 18, 2019 15:00 10.8 0.0 71.7 1240.7
Sat, May 18, 2019 14:00 9.5 0.0 75.1 797.7
Sat, May 18, 2019 13:00 10.5 0.0 74.7 954.0


asterix Register now to access more data! asterix